createdAt,value
2022-07-29T00:00:15.957Z,10.13
2022-07-29T00:03:19.946Z,6.20
2022-07-29T00:06:23.958Z,6.43
2022-07-29T00:09:28.350Z,8.27
2022-07-29T00:12:32.597Z,8.80
2022-07-29T00:15:36.776Z,7.85
2022-07-29T00:18:40.983Z,5.25
2022-07-29T00:21:45.012Z,9.43
2022-07-29T00:24:50.199Z,6.13
2022-07-29T00:27:54.524Z,10.80
2022-07-29T00:30:58.534Z,10.50
2022-07-29T00:34:03.322Z,8.98
2022-07-29T00:37:10.739Z,7.07
2022-07-29T00:40:15.216Z,5.45
2022-07-29T00:43:19.296Z,6.80
2022-07-29T00:46:23.458Z,4.93
2022-07-29T00:49:27.686Z,5.40
2022-07-29T00:52:32.079Z,6.50
2022-07-29T00:55:36.699Z,7.43
2022-07-29T00:58:41.204Z,7.63
2022-07-29T01:01:45.053Z,5.72
2022-07-29T01:04:49.888Z,8.35
2022-07-29T01:07:55.195Z,7.90
2022-07-29T01:11:00.899Z,7.72
2022-07-29T01:14:07.527Z,7.15
2022-07-29T01:17:15.012Z,7.50
2022-07-29T01:20:31.358Z,10.35
2022-07-29T01:24:00.368Z,5.28
2022-07-29T01:27:29.284Z,8.25
2022-07-29T01:30:36.541Z,6.07
2022-07-29T01:33:51.110Z,9.52
2022-07-29T01:37:30.270Z,10.50
2022-07-29T01:40:50.395Z,8.10
2022-07-29T01:44:02.291Z,7.28
2022-07-29T01:47:13.525Z,7.75
2022-07-29T01:50:20.209Z,7.80
2022-07-29T01:53:37.635Z,5.75
2022-07-29T01:56:44.988Z,8.48
2022-07-29T01:59:50.173Z,8.63
2022-07-29T02:02:55.745Z,12.18
2022-07-29T02:06:02.558Z,7.45
2022-07-29T02:09:08.561Z,13.43
2022-07-29T02:12:14.211Z,10.65
2022-07-29T02:15:19.604Z,6.47
2022-07-29T02:18:26.338Z,8.00
2022-07-29T02:21:33.079Z,7.18
2022-07-29T02:24:39.307Z,11.98
2022-07-29T02:27:45.219Z,6.65
2022-07-29T02:30:52.090Z,9.88
2022-07-29T02:33:57.223Z,8.88
2022-07-29T02:37:01.510Z,11.48
2022-07-29T02:40:09.411Z,7.47
2022-07-29T02:43:13.671Z,11.43
2022-07-29T02:46:30.011Z,9.55
2022-07-29T02:50:09.728Z,8.88
2022-07-29T02:53:23.570Z,7.88
2022-07-29T02:56:35.780Z,7.75
2022-07-29T02:59:41.968Z,7.70
2022-07-29T03:02:50.189Z,7.85
2022-07-29T03:05:56.424Z,9.40
2022-07-29T03:09:01.672Z,10.93
2022-07-29T03:12:06.249Z,7.38
2022-07-29T03:15:10.900Z,7.25
2022-07-29T03:18:15.920Z,11.52
2022-07-29T03:21:19.706Z,6.50
2022-07-29T03:24:32.803Z,7.00
2022-07-29T03:27:36.946Z,8.75
2022-07-29T03:30:41.243Z,8.68
2022-07-29T03:33:48.398Z,9.90
2022-07-29T03:36:52.903Z,5.82
2022-07-29T03:39:58.984Z,8.38
2022-07-29T03:43:04.605Z,14.52
2022-07-29T03:46:10.659Z,8.70
2022-07-29T03:49:17.532Z,7.22
2022-07-29T03:52:22.412Z,8.55
2022-07-29T03:55:29.361Z,7.68
2022-07-29T03:58:34.166Z,6.10
2022-07-29T04:01:39.351Z,9.98
2022-07-29T04:04:43.858Z,7.18
2022-07-29T04:07:49.258Z,8.10
2022-07-29T04:10:54.053Z,6.30
2022-07-29T04:13:58.155Z,10.10
2022-07-29T04:17:03.225Z,10.65
2022-07-29T04:20:07.661Z,6.97
2022-07-29T04:23:11.939Z,5.72
2022-07-29T04:26:17.027Z,7.03
2022-07-29T04:29:21.296Z,9.32
2022-07-29T04:32:26.100Z,12.05
2022-07-29T04:35:38.086Z,6.78
2022-07-29T04:38:42.571Z,8.15
2022-07-29T04:41:47.061Z,9.23
2022-07-29T04:44:51.132Z,8.10
2022-07-29T04:47:56.416Z,14.45
2022-07-29T04:51:00.652Z,7.65
2022-07-29T04:54:04.907Z,10.00
2022-07-29T04:57:09.040Z,12.63
2022-07-29T05:00:13.709Z,10.65
2022-07-29T05:03:18.331Z,9.02
2022-07-29T05:06:22.247Z,12.55
2022-07-29T05:09:26.823Z,12.18
2022-07-29T05:12:30.965Z,12.55
2022-07-29T05:15:36.005Z,12.00
2022-07-29T05:18:40.357Z,14.43
2022-07-29T05:21:45.729Z,10.07
2022-07-29T05:24:49.849Z,21.33
2022-07-29T05:27:54.413Z,9.50
2022-07-29T05:30:57.950Z,9.85
2022-07-29T05:34:02.380Z,10.00
2022-07-29T05:37:06.492Z,16.02
2022-07-29T05:40:11.288Z,13.30
2022-07-29T05:43:15.257Z,11.05
2022-07-29T05:46:19.236Z,15.40
2022-07-29T05:49:27.446Z,11.77
2022-07-29T05:52:31.536Z,14.73
2022-07-29T05:55:35.716Z,18.08
2022-07-29T05:58:42.969Z,16.67
2022-07-29T06:01:46.779Z,15.85
2022-07-29T06:04:50.858Z,11.07
2022-07-29T06:07:54.974Z,11.95
2022-07-29T06:10:59.158Z,12.25
2022-07-29T06:14:04.413Z,11.80
2022-07-29T06:17:08.616Z,14.60
2022-07-29T06:20:12.822Z,10.07
2022-07-29T06:23:17.365Z,11.75
2022-07-29T06:26:30.359Z,12.82
2022-07-29T06:29:35.504Z,11.43
2022-07-29T06:32:43.076Z,14.48
2022-07-29T06:35:53.160Z,15.13
2022-07-29T06:38:59.173Z,12.30
2022-07-29T06:42:07.145Z,13.18
2022-07-29T06:45:12.258Z,15.70
2022-07-29T06:48:16.543Z,17.42
2022-07-29T06:51:23.230Z,20.27
2022-07-29T06:54:27.622Z,11.32
2022-07-29T06:57:32.066Z,10.73
2022-07-29T07:00:36.417Z,17.02
2022-07-29T07:03:40.333Z,12.75
2022-07-29T07:06:44.965Z,12.02
2022-07-29T07:09:48.919Z,13.98
2022-07-29T07:12:53.103Z,15.27
2022-07-29T07:15:56.999Z,20.85
2022-07-29T07:19:01.193Z,16.75
2022-07-29T07:22:05.264Z,18.40
2022-07-29T07:25:09.898Z,23.02
2022-07-29T07:28:14.002Z,12.57
2022-07-29T07:31:18.247Z,10.23
2022-07-29T07:34:29.474Z,14.30
2022-07-29T07:37:34.798Z,15.68
2022-07-29T07:40:38.637Z,17.42
2022-07-29T07:43:42.889Z,19.13
2022-07-29T07:46:46.871Z,15.43
2022-07-29T07:49:51.996Z,16.67
2022-07-29T07:53:00.016Z,16.50
2022-07-29T07:56:10.968Z,25.48
2022-07-29T07:59:17.256Z,16.47
2022-07-29T08:02:21.584Z,16.83
2022-07-29T08:05:25.466Z,16.85
2022-07-29T08:08:29.786Z,20.80
2022-07-29T08:11:35.766Z,19.15
2022-07-29T08:14:42.010Z,16.35
2022-07-29T08:17:46.472Z,12.95
2022-07-29T08:20:50.758Z,19.50
2022-07-29T08:24:14.637Z,16.02
2022-07-29T08:27:41.809Z,15.38
2022-07-29T08:30:44.726Z,19.13
2022-07-29T08:33:48.782Z,15.30
2022-07-29T08:36:52.999Z,13.82
2022-07-29T08:39:57.278Z,14.32
2022-07-29T08:43:08.940Z,17.00
2022-07-29T08:46:13.069Z,13.98
2022-07-29T08:49:19.030Z,18.25
2022-07-29T08:52:26.545Z,15.75
2022-07-29T08:55:30.485Z,9.00
2022-07-29T08:58:36.967Z,16.40
2022-07-29T09:01:45.094Z,16.77
2022-07-29T09:04:50.459Z,15.63
2022-07-29T09:07:54.602Z,15.85
2022-07-29T09:11:00.977Z,13.27
2022-07-29T09:14:08.228Z,14.15
2022-07-29T09:17:12.560Z,18.13
2022-07-29T09:20:20.191Z,14.65
2022-07-29T09:23:25.429Z,12.65
2022-07-29T09:26:31.653Z,15.13
2022-07-29T09:29:36.547Z,19.00
2022-07-29T09:32:58.246Z,14.32
2022-07-29T09:36:07.156Z,15.30
2022-07-29T09:39:12.096Z,18.02
2022-07-29T09:42:28.899Z,14.52
2022-07-29T09:45:34.725Z,13.50
2022-07-29T09:48:38.768Z,14.88
2022-07-29T09:51:42.736Z,11.88
2022-07-29T09:54:47.398Z,14.25
2022-07-29T09:57:51.233Z,14.45
2022-07-29T10:00:57.292Z,17.30
2022-07-29T10:04:01.553Z,16.63
2022-07-29T10:07:06.459Z,12.27
2022-07-29T10:10:10.815Z,14.98
2022-07-29T10:13:16.404Z,11.52
2022-07-29T10:16:23.252Z,12.25
2022-07-29T10:19:31.982Z,12.73
2022-07-29T10:22:52.291Z,8.35
2022-07-29T10:25:58.591Z,11.82
2022-07-29T10:29:02.621Z,8.55
2022-07-29T10:32:09.877Z,13.88
2022-07-29T10:36:00.744Z,13.57
2022-07-29T10:39:41.803Z,11.02
2022-07-29T10:42:52.170Z,11.10
2022-07-29T10:46:00.245Z,10.68
2022-07-29T10:49:09.884Z,11.15
2022-07-29T10:52:15.482Z,10.63
2022-07-29T10:55:43.671Z,11.20
2022-07-29T10:59:37.529Z,9.93
2022-07-29T11:02:43.976Z,9.02
2022-07-29T11:05:54.683Z,11.00
2022-07-29T11:09:20.302Z,13.95
2022-07-29T11:12:39.284Z,9.23
2022-07-29T11:15:58.258Z,10.13
2022-07-29T11:19:13.152Z,12.88
2022-07-29T11:22:42.979Z,12.07
2022-07-29T11:26:12.884Z,5.50
2022-07-29T11:29:24.542Z,7.90
2022-07-29T11:32:38.538Z,7.45
2022-07-29T11:35:42.674Z,6.40
2022-07-29T11:39:36.295Z,11.82
2022-07-29T11:42:52.569Z,11.30
2022-07-29T11:45:57.382Z,10.82
2022-07-29T11:49:03.528Z,7.72
2022-07-29T11:52:13.599Z,12.27
2022-07-29T11:55:23.600Z,11.82
2022-07-29T11:58:36.734Z,11.07
2022-07-29T12:02:06.695Z,7.97
2022-07-29T12:05:35.794Z,16.75
2022-07-29T12:08:44.748Z,10.35
2022-07-29T12:11:49.351Z,9.23
2022-07-29T12:14:53.447Z,7.47
2022-07-29T12:17:59.893Z,10.30
2022-07-29T12:21:09.218Z,7.75
2022-07-29T12:24:16.919Z,9.63
2022-07-29T12:27:29.415Z,8.27
2022-07-29T12:30:40.614Z,11.98
2022-07-29T12:33:53.842Z,14.18
2022-07-29T12:36:57.932Z,8.05
2022-07-29T12:40:04.473Z,13.93
2022-07-29T12:43:18.072Z,10.90
2022-07-29T12:46:22.387Z,15.45
2022-07-29T12:49:26.605Z,9.82
2022-07-29T12:52:34.367Z,12.68
2022-07-29T12:55:43.901Z,10.18
2022-07-29T12:58:51.125Z,8.93
2022-07-29T13:01:55.967Z,8.23
2022-07-29T13:05:02.103Z,9.23
2022-07-29T13:08:22.114Z,12.80
2022-07-29T13:11:45.292Z,12.75
2022-07-29T13:14:51.433Z,11.68
2022-07-29T13:17:55.242Z,10.80
2022-07-29T13:21:12.725Z,10.98
2022-07-29T13:24:19.822Z,9.15
2022-07-29T13:27:26.431Z,10.63
2022-07-29T13:30:30.588Z,11.75
2022-07-29T13:33:34.566Z,13.32
2022-07-29T13:36:41.596Z,13.40
2022-07-29T13:39:51.580Z,9.55
2022-07-29T13:42:57.726Z,12.07
2022-07-29T13:46:01.793Z,13.15
2022-07-29T13:49:06.533Z,8.52
2022-07-29T13:52:10.947Z,10.75
2022-07-29T13:55:15.426Z,7.47
2022-07-29T13:58:19.309Z,9.70
2022-07-29T14:01:23.811Z,10.43
2022-07-29T14:04:27.958Z,10.55
2022-07-29T14:07:32.296Z,6.53
2022-07-29T14:10:36.553Z,12.43
2022-07-29T14:13:40.433Z,8.50
2022-07-29T14:16:47.785Z,9.05
2022-07-29T14:19:55.890Z,7.65
2022-07-29T14:23:00.100Z,12.70
2022-07-29T14:26:04.298Z,10.18
2022-07-29T14:29:12.758Z,11.00
2022-07-29T14:32:16.939Z,13.80
2022-07-29T14:35:21.169Z,8.13
2022-07-29T14:38:26.933Z,9.93
2022-07-29T14:41:30.945Z,14.13
2022-07-29T14:44:35.005Z,11.82
2022-07-29T14:47:40.254Z,15.70
2022-07-29T14:50:44.493Z,10.52
2022-07-29T14:53:48.849Z,8.77
2022-07-29T14:56:56.133Z,14.55
2022-07-29T15:00:00.203Z,11.27
2022-07-29T15:03:05.117Z,8.23
2022-07-29T15:06:09.305Z,10.77
2022-07-29T15:09:13.740Z,12.02
2022-07-29T15:12:18.009Z,14.55
2022-07-29T15:15:21.972Z,12.25
2022-07-29T15:18:26.174Z,8.90
2022-07-29T15:21:30.762Z,14.88
2022-07-29T15:24:35.412Z,9.70
2022-07-29T15:27:39.635Z,15.68
2022-07-29T15:30:43.589Z,12.00
2022-07-29T15:33:47.738Z,10.60
2022-07-29T15:36:53.584Z,11.65
2022-07-29T15:40:00.112Z,11.93
2022-07-29T15:43:06.629Z,12.73
2022-07-29T15:46:36.046Z,13.35
2022-07-29T15:49:46.419Z,12.07
2022-07-29T15:52:52.920Z,14.25
2022-07-29T15:55:57.211Z,10.05
2022-07-29T15:59:01.643Z,10.20
2022-07-29T16:02:06.079Z,10.80
2022-07-29T16:05:10.598Z,11.07
2022-07-29T16:08:14.895Z,12.38
2022-07-29T16:11:18.653Z,12.40
2022-07-29T16:14:23.023Z,10.38
2022-07-29T16:17:27.731Z,9.82
2022-07-29T16:20:31.789Z,13.55
2022-07-29T16:23:35.676Z,9.05
2022-07-29T16:26:40.126Z,10.93
2022-07-29T16:29:46.725Z,7.20
2022-07-29T16:32:50.858Z,7.32
2022-07-29T16:35:55.204Z,6.22
2022-07-29T16:38:59.724Z,8.20
2022-07-29T16:42:05.401Z,9.48
2022-07-29T16:45:10.415Z,9.38
2022-07-29T16:48:15.422Z,12.02
2022-07-29T16:51:22.459Z,8.57
2022-07-29T16:54:26.657Z,9.82
2022-07-29T16:57:30.979Z,9.60
2022-07-29T17:00:35.080Z,9.27
2022-07-29T17:04:00.436Z,11.95
2022-07-29T17:07:04.685Z,18.15
2022-07-29T17:10:10.970Z,21.92
2022-07-29T17:13:15.110Z,16.77
2022-07-29T17:16:23.546Z,16.38
2022-07-29T17:19:29.743Z,13.30
2022-07-29T17:22:33.816Z,11.88
2022-07-29T17:25:38.148Z,6.07
2022-07-29T17:28:42.696Z,5.72
2022-07-29T17:31:46.630Z,6.55
2022-07-29T17:34:50.758Z,8.05
2022-07-29T17:37:55.299Z,6.10
2022-07-29T17:40:59.162Z,11.02
2022-07-29T17:44:03.671Z,8.75
2022-07-29T17:47:16.471Z,7.55
2022-07-29T17:50:20.766Z,7.53
2022-07-29T17:53:24.900Z,10.65
2022-07-29T17:56:29.180Z,9.13
2022-07-29T17:59:33.513Z,7.90
2022-07-29T18:02:38.162Z,13.68
2022-07-29T18:05:42.396Z,6.72
2022-07-29T18:08:47.562Z,5.63
2022-07-29T18:11:51.671Z,8.90
2022-07-29T18:14:56.130Z,6.03
2022-07-29T18:18:00.486Z,9.80
2022-07-29T18:21:05.118Z,6.68
2022-07-29T18:24:09.130Z,9.13
2022-07-29T18:27:13.292Z,5.25
2022-07-29T18:30:17.544Z,5.88
2022-07-29T18:33:22.675Z,9.02
2022-07-29T18:36:27.156Z,5.32
2022-07-29T18:39:31.359Z,8.95
2022-07-29T18:42:35.315Z,6.70
2022-07-29T18:45:39.769Z,8.23
2022-07-29T18:48:43.931Z,9.82
2022-07-29T18:51:49.534Z,6.30
2022-07-29T18:54:53.537Z,6.85
2022-07-29T18:57:57.676Z,8.48
2022-07-29T19:01:02.228Z,4.35
2022-07-29T19:04:06.614Z,6.80
2022-07-29T19:07:10.588Z,5.65
2022-07-29T19:10:14.708Z,7.35
2022-07-29T19:13:18.795Z,7.18
2022-07-29T19:16:23.317Z,6.97
2022-07-29T19:19:27.803Z,7.43
2022-07-29T19:22:33.237Z,6.45
2022-07-29T19:25:37.459Z,10.73
2022-07-29T19:28:57.227Z,10.30
2022-07-29T19:32:01.457Z,8.60
2022-07-29T19:35:24.550Z,10.73
2022-07-29T19:38:28.545Z,10.13
2022-07-29T19:41:32.919Z,8.00
2022-07-29T19:44:36.917Z,12.30
2022-07-29T19:47:41.271Z,10.20
2022-07-29T19:50:45.738Z,11.00
2022-07-29T19:53:50.781Z,12.55
2022-07-29T19:56:54.681Z,8.68
2022-07-29T19:59:58.973Z,8.32
2022-07-29T20:03:04.732Z,9.25
2022-07-29T20:06:09.613Z,7.93
2022-07-29T20:09:17.005Z,7.57
2022-07-29T20:12:24.877Z,11.50
2022-07-29T20:15:29.347Z,10.20
2022-07-29T20:18:34.314Z,9.98
2022-07-29T20:21:38.453Z,7.55
2022-07-29T20:24:42.685Z,9.75
2022-07-29T20:27:52.208Z,9.25
2022-07-29T20:30:55.971Z,7.18
2022-07-29T20:34:00.979Z,8.23
2022-07-29T20:37:04.812Z,10.88
2022-07-29T20:40:12.513Z,7.75
2022-07-29T20:43:16.997Z,10.25
2022-07-29T20:46:21.937Z,10.32
2022-07-29T20:49:26.585Z,9.57
2022-07-29T20:52:30.769Z,8.27
2022-07-29T20:55:34.967Z,8.55
2022-07-29T20:58:40.698Z,12.82
2022-07-29T21:01:44.939Z,8.95
2022-07-29T21:04:48.944Z,8.90
2022-07-29T21:07:57.798Z,12.13
2022-07-29T21:11:02.239Z,13.25
2022-07-29T21:14:06.656Z,8.88
2022-07-29T21:17:10.641Z,10.20
2022-07-29T21:20:16.872Z,10.15
2022-07-29T21:23:20.931Z,9.75
2022-07-29T21:26:24.897Z,9.00
2022-07-29T21:29:29.083Z,11.90
2022-07-29T21:32:33.444Z,12.65
2022-07-29T21:36:07.355Z,10.07
2022-07-29T21:39:06.923Z,10.00
2022-07-29T21:42:14.250Z,8.35
2022-07-29T21:45:18.441Z,13.63
2022-07-29T21:48:24.471Z,9.20
2022-07-29T21:51:28.178Z,10.60
2022-07-29T21:54:32.250Z,13.45
2022-07-29T21:57:36.444Z,8.80
2022-07-29T22:00:41.843Z,8.70
2022-07-29T22:03:46.052Z,11.02
2022-07-29T22:06:50.102Z,10.48
2022-07-29T22:09:53.932Z,10.20
2022-07-29T22:12:59.861Z,14.52
2022-07-29T22:16:04.368Z,16.35
2022-07-29T22:19:08.412Z,12.95
2022-07-29T22:22:12.578Z,10.23
2022-07-29T22:25:16.651Z,13.80
2022-07-29T22:28:20.820Z,9.05
2022-07-29T22:31:25.353Z,12.27
2022-07-29T22:34:37.039Z,8.77
2022-07-29T22:37:41.880Z,11.68
2022-07-29T22:40:48.652Z,10.60
2022-07-29T22:43:54.398Z,7.75
2022-07-29T22:47:00.614Z,10.55
2022-07-29T22:50:06.311Z,9.85
2022-07-29T22:53:09.988Z,9.23
2022-07-29T22:56:14.270Z,10.13
2022-07-29T22:59:18.578Z,9.60
2022-07-29T23:02:22.723Z,7.50
2022-07-29T23:05:26.891Z,8.52
2022-07-29T23:08:30.794Z,10.25
2022-07-29T23:11:34.977Z,8.75
2022-07-29T23:14:39.107Z,7.00
2022-07-29T23:17:43.418Z,9.52
2022-07-29T23:20:47.268Z,8.60
2022-07-29T23:23:51.674Z,7.50
2022-07-29T23:26:55.837Z,7.65
2022-07-29T23:29:59.896Z,10.55
2022-07-29T23:33:04.048Z,7.95
2022-07-29T23:36:08.023Z,9.23
2022-07-29T23:39:13.327Z,7.00
2022-07-29T23:42:17.683Z,8.77
2022-07-29T23:45:21.771Z,6.45
2022-07-29T23:48:27.081Z,7.25
2022-07-29T23:51:30.792Z,8.95
2022-07-29T23:54:34.910Z,7.72
2022-07-29T23:57:39.157Z,9.80
